createdAt,value
2022-11-13T00:00:00.033Z,102167.20
2022-11-13T00:04:02.882Z,102161.83
2022-11-13T00:07:48.950Z,102162.20
2022-11-13T00:11:35.239Z,102157.83
2022-11-13T00:15:21.533Z,102153.05
2022-11-13T00:19:07.463Z,102153.16
2022-11-13T00:22:53.412Z,102154.84
2022-11-13T00:26:40.042Z,102157.03
2022-11-13T00:30:26.346Z,102156.19
2022-11-13T00:34:41.488Z,102157.06
2022-11-13T00:38:22.311Z,102159.86
2022-11-13T00:42:08.450Z,102157.88
2022-11-13T00:45:56.265Z,102157.96
2022-11-13T00:49:42.156Z,102161.50
2022-11-13T00:53:28.402Z,102161.64
2022-11-13T00:57:14.450Z,102154.59
2022-11-13T01:01:08.906Z,102156.23
2022-11-13T01:04:55.154Z,102152.38
2022-11-13T01:08:43.740Z,102148.98
2022-11-13T01:12:29.751Z,102149.31
2022-11-13T01:16:18.965Z,102144.73
2022-11-13T01:20:06.482Z,102150.52
2022-11-13T01:23:54.885Z,102147.11
2022-11-13T01:27:41.051Z,102145.58
2022-11-13T01:31:29.614Z,102144.79
2022-11-13T01:35:15.197Z,102149.04
2022-11-13T01:39:00.785Z,102142.27
2022-11-13T01:42:46.230Z,102147.81
2022-11-13T01:46:35.333Z,102144.25
2022-11-13T01:50:21.437Z,102133.27
2022-11-13T01:54:11.904Z,102134.63
2022-11-13T01:57:58.245Z,102128.20
2022-11-13T02:01:43.935Z,102125.79
2022-11-13T02:05:29.781Z,102129.40
2022-11-13T02:09:16.849Z,102132.33
2022-11-13T02:13:03.460Z,102129.34
2022-11-13T02:16:54.132Z,102133.26
2022-11-13T02:20:48.383Z,102129.81
2022-11-13T02:24:40.985Z,102126.55
2022-11-13T02:28:29.175Z,102125.92
2022-11-13T02:32:15.135Z,102120.50
2022-11-13T02:36:01.543Z,102116.81
2022-11-13T02:39:49.107Z,102118.03
2022-11-13T02:43:35.304Z,102120.85
2022-11-13T02:47:20.918Z,102118.85
2022-11-13T02:51:07.487Z,102118.98
2022-11-13T02:54:55.285Z,102120.95
2022-11-13T02:58:40.938Z,102120.02
2022-11-13T03:02:28.234Z,102117.55
2022-11-13T03:06:14.274Z,102110.54
2022-11-13T03:10:00.460Z,102103.17
2022-11-13T03:13:46.406Z,102103.17
2022-11-13T03:17:34.106Z,102105.48
2022-11-13T03:21:19.952Z,102107.94
2022-11-13T03:25:10.498Z,102106.71
2022-11-13T03:28:58.811Z,102107.42
2022-11-13T03:32:45.114Z,102105.94
2022-11-13T03:36:31.370Z,102107.45
2022-11-13T03:40:17.598Z,102098.46
2022-11-13T03:44:03.576Z,102103.26
2022-11-13T03:47:49.894Z,102101.85
2022-11-13T03:51:36.233Z,102103.02
2022-11-13T03:55:21.855Z,102100.04
2022-11-13T03:59:08.068Z,102099.54
2022-11-13T04:02:53.929Z,102096.69
2022-11-13T04:06:40.233Z,102092.21
2022-11-13T04:10:26.115Z,102094.17
2022-11-13T04:14:12.131Z,102095.33
2022-11-13T04:17:57.931Z,102096.98
2022-11-13T04:21:43.885Z,102099.63
2022-11-13T04:25:29.403Z,102103.29
2022-11-13T04:29:15.813Z,102102.40
2022-11-13T04:33:01.717Z,102097.80
2022-11-13T04:36:46.884Z,102101.55
2022-11-13T04:40:32.849Z,102109.30
2022-11-13T04:44:18.680Z,102111.52
2022-11-13T04:48:05.238Z,102109.27
2022-11-13T04:51:51.236Z,102103.06
2022-11-13T04:55:37.491Z,102107.55
2022-11-13T04:59:23.341Z,102110.52
2022-11-13T05:03:09.771Z,102107.76
2022-11-13T05:06:55.895Z,102104.10
2022-11-13T05:10:41.640Z,102109.79
2022-11-13T05:14:27.372Z,102112.29
2022-11-13T05:18:13.132Z,102112.26
2022-11-13T05:21:59.156Z,102111.39
2022-11-13T05:25:44.927Z,102109.92
2022-11-13T05:29:31.156Z,102111.62
2022-11-13T05:33:17.433Z,102115.55
2022-11-13T05:37:03.404Z,102113.55
2022-11-13T05:40:48.960Z,102115.63
2022-11-13T05:44:35.034Z,102118.09
2022-11-13T05:48:21.135Z,102126.23
2022-11-13T05:52:06.828Z,102123.57
2022-11-13T05:55:52.753Z,102115.67
2022-11-13T05:59:39.236Z,102114.48
2022-11-13T06:03:26.166Z,102111.54
2022-11-13T06:07:11.913Z,102109.20
2022-11-13T06:11:02.047Z,102106.14
2022-11-13T06:14:48.204Z,102109.80
2022-11-13T06:18:35.410Z,102106.60
2022-11-13T06:22:21.533Z,102103.67
2022-11-13T06:26:08.452Z,102102.89
2022-11-13T06:29:53.779Z,102101.94
2022-11-13T06:33:44.646Z,102102.49
2022-11-13T06:37:34.493Z,102105.20
2022-11-13T06:41:22.349Z,102106.89
2022-11-13T06:45:08.662Z,102106.73
2022-11-13T06:48:54.556Z,102107.08
2022-11-13T06:52:39.763Z,102109.67
2022-11-13T06:56:25.974Z,102116.21
2022-11-13T07:00:14.161Z,102114.46
2022-11-13T07:04:00.363Z,102104.17
2022-11-13T07:07:45.632Z,102106.27
2022-11-13T07:11:31.343Z,102107.75
2022-11-13T07:15:17.382Z,102107.37
2022-11-13T07:19:05.660Z,102108.48
2022-11-13T07:22:51.059Z,102106.30
2022-11-13T07:26:37.464Z,102101.30
2022-11-13T07:30:24.014Z,102105.71
2022-11-13T07:34:10.006Z,102106.23
2022-11-13T07:38:00.106Z,102104.48
2022-11-13T07:41:45.744Z,102105.55
2022-11-13T07:45:31.968Z,102102.24
2022-11-13T07:49:18.874Z,102110.62
2022-11-13T07:53:06.515Z,102120.41
2022-11-13T07:56:52.103Z,102119.35
2022-11-13T08:00:38.603Z,102113.83
2022-11-13T08:04:24.402Z,102115.59
2022-11-13T08:08:13.122Z,102116.73
2022-11-13T08:11:58.643Z,102116.75
2022-11-13T08:15:44.233Z,102122.15
2022-11-13T08:19:29.995Z,102129.98
2022-11-13T08:23:15.477Z,102130.17
2022-11-13T08:27:01.524Z,102131.44
2022-11-13T08:30:48.310Z,102133.46
2022-11-13T08:34:35.879Z,102131.39
2022-11-13T08:38:22.797Z,102131.14
2022-11-13T08:42:09.114Z,102132.99
2022-11-13T08:45:54.655Z,102131.84
2022-11-13T08:49:40.329Z,102139.25
2022-11-13T08:53:26.797Z,102141.88
2022-11-13T08:57:12.924Z,102142.52
2022-11-13T09:01:05.597Z,102140.89
2022-11-13T09:04:51.539Z,102139.83
2022-11-13T09:08:38.818Z,102138.23
2022-11-13T09:12:24.653Z,102139.69
2022-11-13T09:16:11.139Z,102134.98
2022-11-13T09:20:02.192Z,102137.90
2022-11-13T09:23:49.791Z,102135.83
2022-11-13T09:27:35.458Z,102132.91
2022-11-13T09:31:23.398Z,102136.31
2022-11-13T09:35:10.142Z,102133.73
2022-11-13T09:38:56.177Z,102129.16
2022-11-13T09:42:43.714Z,102130.71
2022-11-13T09:46:42.002Z,102126.70
2022-11-13T09:50:30.691Z,102123.69
2022-11-13T09:54:17.462Z,102119.28
2022-11-13T09:58:12.238Z,102120.17
2022-11-13T10:02:05.007Z,102119.38
2022-11-13T10:05:58.865Z,102118.14
2022-11-13T10:10:00.921Z,102114.84
2022-11-13T10:13:53.963Z,102111.33
2022-11-13T10:17:44.019Z,102104.78
2022-11-13T10:21:35.018Z,102102.17
2022-11-13T10:25:22.917Z,102101.74
2022-11-13T10:29:15.336Z,102097.06
2022-11-13T10:33:09.440Z,102094.30
2022-11-13T10:37:21.491Z,102088.75
2022-11-13T10:41:14.159Z,102086.52
2022-11-13T10:45:01.679Z,102089.96
2022-11-13T10:48:48.947Z,102081.08
2022-11-13T10:52:38.541Z,102077.23
2022-11-13T10:56:31.630Z,102071.84
2022-11-13T11:00:26.836Z,102067.48
2022-11-13T11:04:21.376Z,102064.73
2022-11-13T11:08:12.351Z,102071.08
2022-11-13T11:12:18.726Z,102077.77
2022-11-13T11:16:44.693Z,102080.10
2022-11-13T11:20:46.788Z,102083.48
2022-11-13T11:24:36.753Z,102074.39
2022-11-13T11:28:31.924Z,102064.02
2022-11-13T11:32:24.826Z,102067.73
2022-11-13T11:36:23.597Z,102068.95
2022-11-13T11:40:21.618Z,102056.04
2022-11-13T11:44:16.994Z,102047.48
2022-11-13T11:48:06.468Z,102047.52
2022-11-13T11:52:05.607Z,102041.79
2022-11-13T11:56:19.909Z,102043.07
2022-11-13T12:00:12.523Z,102043.63
2022-11-13T12:04:16.248Z,102043.48
2022-11-13T12:08:13.486Z,102043.61
2022-11-13T12:12:11.573Z,102043.98
2022-11-13T12:16:04.444Z,102038.12
2022-11-13T12:20:03.963Z,102036.84
2022-11-13T12:24:07.516Z,102033.88
2022-11-13T12:28:00.169Z,102039.64
2022-11-13T12:31:59.429Z,102034.99
2022-11-13T12:36:13.529Z,102026.83
2022-11-13T12:40:07.576Z,102022.13
2022-11-13T12:44:24.598Z,102026.71
2022-11-13T12:48:29.201Z,102026.45
2022-11-13T12:52:24.660Z,102026.93
2022-11-13T12:56:19.188Z,102018.56
2022-11-13T13:00:26.855Z,102025.26
2022-11-13T13:04:46.653Z,102017.84
2022-11-13T13:08:58.519Z,102017.86
2022-11-13T13:12:57.081Z,102014.48
2022-11-13T13:16:51.495Z,102011.09
2022-11-13T13:20:40.461Z,102016.75
2022-11-13T13:24:38.231Z,102010.80
2022-11-13T13:28:25.797Z,102005.45
2022-11-13T13:32:21.388Z,101995.33
2022-11-13T13:36:18.230Z,101997.86
2022-11-13T13:40:22.277Z,102002.32
2022-11-13T13:50:40.572Z,101991.30
2022-11-13T14:05:35.729Z,101988.83
2022-11-13T14:09:24.086Z,101985.95
2022-11-13T14:13:17.023Z,101987.52
2022-11-13T14:17:04.175Z,101979.36
2022-11-13T14:20:55.908Z,101978.33
2022-11-13T14:24:52.060Z,101972.06
2022-11-13T14:28:53.597Z,101972.45
2022-11-13T14:32:47.278Z,101971.20
2022-11-13T14:36:37.412Z,101970.94
2022-11-13T14:40:26.617Z,101973.19
2022-11-13T14:44:30.746Z,101971.86
2022-11-13T14:48:24.580Z,101964.44
2022-11-13T14:52:24.483Z,101962.62
2022-11-13T14:56:13.472Z,101962.61
2022-11-13T15:00:13.394Z,101962.94
2022-11-13T15:04:03.824Z,101955.73
2022-11-13T15:07:51.561Z,101952.34
2022-11-13T15:11:40.598Z,101951.15
2022-11-13T15:15:36.387Z,101940.13
2022-11-13T15:19:27.229Z,101946.42
2022-11-13T15:23:17.664Z,101945.41
2022-11-13T15:27:07.209Z,101942.08
2022-11-13T15:30:54.577Z,101944.36
2022-11-13T15:34:44.694Z,101943.71
2022-11-13T15:38:32.575Z,101944.30
2022-11-13T15:42:23.972Z,101939.52
2022-11-13T15:46:16.447Z,101938.13
2022-11-13T15:50:15.287Z,101947.73
2022-11-13T15:54:03.981Z,101947.71
2022-11-13T15:57:54.045Z,101941.23
2022-11-13T16:01:42.533Z,101939.48
2022-11-13T16:05:33.905Z,101933.30
2022-11-13T16:09:21.974Z,101933.20
2022-11-13T16:13:13.617Z,101925.15
2022-11-13T16:17:00.484Z,101921.59
2022-11-13T16:20:47.860Z,101918.08
2022-11-13T16:24:34.274Z,101914.28
2022-11-13T16:28:23.062Z,101906.43
2022-11-13T16:32:11.618Z,101908.58
2022-11-13T16:36:06.705Z,101913.14
2022-11-13T16:40:00.329Z,101912.55
2022-11-13T16:43:52.791Z,101918.20
2022-11-13T16:47:42.797Z,101921.65
2022-11-13T16:51:31.429Z,101914.08
2022-11-13T16:55:20.016Z,101911.39
2022-11-13T16:59:14.066Z,101906.07
2022-11-13T17:03:04.728Z,101901.59
2022-11-13T17:06:56.567Z,101896.46
2022-11-13T17:10:44.707Z,101894.16
2022-11-13T17:14:30.820Z,101891.20
2022-11-13T17:18:17.327Z,101893.56
2022-11-13T17:22:04.156Z,101887.40
2022-11-13T17:25:52.199Z,101889.98
2022-11-13T17:29:40.263Z,101893.23
2022-11-13T17:33:26.642Z,101896.48
2022-11-13T17:37:13.469Z,101895.23
2022-11-13T17:41:05.977Z,101894.95
2022-11-13T17:44:51.859Z,101907.77
2022-11-13T17:48:41.651Z,101912.63
2022-11-13T17:52:28.099Z,101906.61
2022-11-13T17:56:16.616Z,101905.73
2022-11-13T18:00:04.211Z,101911.02
2022-11-13T18:03:55.568Z,101912.17
2022-11-13T18:07:41.511Z,101913.40
2022-11-13T18:11:29.989Z,101915.73
2022-11-13T18:15:17.296Z,101918.91
2022-11-13T18:19:07.072Z,101924.09
2022-11-13T18:22:53.922Z,101924.23
2022-11-13T18:26:40.414Z,101926.48
2022-11-13T18:30:26.405Z,101929.89
2022-11-13T18:34:16.996Z,101929.98
2022-11-13T18:38:05.807Z,101932.52
2022-11-13T18:41:52.297Z,101934.58
2022-11-13T18:45:40.699Z,101933.77
2022-11-13T18:49:27.340Z,101928.17
2022-11-13T18:53:15.317Z,101926.95
2022-11-13T18:57:03.849Z,101922.77
2022-11-13T19:00:50.558Z,101927.48
2022-11-13T19:04:38.401Z,101927.63
2022-11-13T19:08:25.954Z,101933.20
2022-11-13T19:12:12.931Z,101930.95
2022-11-13T19:15:59.751Z,101932.81
2022-11-13T19:19:47.922Z,101934.73
2022-11-13T19:23:37.539Z,101929.77
2022-11-13T19:27:25.485Z,101928.77
2022-11-13T19:31:19.154Z,101932.20
2022-11-13T19:35:08.109Z,101926.19
2022-11-13T19:38:57.846Z,101927.17
2022-11-13T19:42:45.516Z,101917.02
2022-11-13T19:46:34.384Z,101920.02
2022-11-13T19:50:24.730Z,101918.39
2022-11-13T19:54:14.270Z,101915.98
2022-11-13T19:58:02.530Z,101909.83
2022-11-13T20:01:48.755Z,101910.77
2022-11-13T20:05:34.935Z,101910.80
2022-11-13T20:09:20.933Z,101910.14
2022-11-13T20:13:07.535Z,101911.50
2022-11-13T20:16:56.194Z,101912.35
2022-11-13T20:20:54.430Z,101911.45
2022-11-13T20:24:42.827Z,101910.70
2022-11-13T20:28:33.000Z,101905.45
2022-11-13T20:32:20.140Z,101898.99
2022-11-13T20:36:12.714Z,101898.13
2022-11-13T20:40:00.878Z,101901.60
2022-11-13T20:43:56.316Z,101902.88
2022-11-13T20:47:49.784Z,101896.77
2022-11-13T20:51:36.593Z,101893.08
2022-11-13T20:55:24.239Z,101889.58
2022-11-13T20:59:11.037Z,101892.15
2022-11-13T21:03:07.903Z,101890.08
2022-11-13T21:06:55.671Z,101892.59
2022-11-13T21:10:42.129Z,101890.16
2022-11-13T21:14:29.248Z,101882.80
2022-11-13T21:18:21.008Z,101889.85
2022-11-13T21:22:13.397Z,101884.61
2022-11-13T21:26:08.279Z,101881.58
2022-11-13T21:29:58.251Z,101881.02
2022-11-13T21:33:51.087Z,101872.02
2022-11-13T21:37:38.010Z,101874.41
2022-11-13T21:41:28.445Z,101873.89
2022-11-13T21:45:25.886Z,101874.23
2022-11-13T21:49:14.643Z,101872.33
2022-11-13T21:53:01.152Z,101869.48
2022-11-13T21:56:48.402Z,101876.36
2022-11-13T22:00:34.452Z,101877.73
2022-11-13T22:04:21.378Z,101873.08
2022-11-13T22:08:08.010Z,101866.11
2022-11-13T22:11:53.599Z,101872.50
2022-11-13T22:15:39.719Z,101867.53
2022-11-13T22:19:28.419Z,101863.69
2022-11-13T22:23:19.597Z,101860.55
2022-11-13T22:27:05.532Z,101858.25
2022-11-13T22:30:52.438Z,101857.64
2022-11-13T22:34:43.169Z,101843.98
2022-11-13T22:38:35.375Z,101849.11
2022-11-13T22:42:21.686Z,101850.29
2022-11-13T22:46:10.242Z,101846.20
2022-11-13T22:49:58.606Z,101850.31
2022-11-13T22:53:50.285Z,101845.59
2022-11-13T22:57:36.579Z,101845.03
2022-11-13T23:01:25.291Z,101843.19
2022-11-13T23:05:12.209Z,101838.30
2022-11-13T23:08:59.766Z,101839.45
2022-11-13T23:12:45.999Z,101834.92
2022-11-13T23:16:32.647Z,101832.41
2022-11-13T23:20:19.491Z,101829.52
2022-11-13T23:24:06.606Z,101828.09
2022-11-13T23:27:53.628Z,101820.44
2022-11-13T23:31:39.708Z,101816.15
2022-11-13T23:35:27.957Z,101816.89
2022-11-13T23:39:15.812Z,101813.31
2022-11-13T23:43:04.394Z,101810.48
2022-11-13T23:46:50.578Z,101806.95
2022-11-13T23:50:37.973Z,101800.33
2022-11-13T23:54:25.235Z,101797.85
2022-11-13T23:58:16.720Z,101795.84
